Date,TemperatureHighF,TemperatureAvgF,TemperatureLowF,DewpointHighF,DewpointAvgF,DewpointLowF,HumidityHigh,HumidityAvg,HumidityLow,PressureMaxIn,PressureMinIn,WindSpeedMaxMPH,WindSpeedAvgMPH,GustSpeedMaxMPH,PrecipitationSumIn
2013-3-1,28,26,23,22,19,16,85,76,66,30.41,30.26,14,4,15,0.00
2013-3-2,38,28,19,24,20,14,83,71,52,30.41,30.14,8,1,11,0.00
2013-3-3,41,33,26,31,26,22,87,77,66,30.14,29.74,16,4,16,0.00
2013-3-4,45,35,29,33,28,21,88,76,59,30.06,29.68,17,4,17,0.00
2013-3-5,33,28,24,22,19,16,78,69,60,30.44,30.03,30,8,32,0.00
2013-3-6,42,29,21,24,20,16,82,69,46,30.48,30.28,16,2,16,0.00
2013-3-7,52,35,22,30,25,19,86,70,42,30.32,30.12,20,4,21,0.00
2013-3-8,55,42,29,39,32,25,88,71,50,30.21,29.91,15,4,17,0.12
2013-3-9,55,46,35,51,43,33,93,90,84,29.92,29.52,20,4,21,0.13
2013-3-10,35,31,27,33,29,26,96,93,90,29.88,29.66,24,11,27,0.04
2013-3-21,32,30,23,19,14,11,66,53,41,30.08,29.96,10,3,11,0.00
2013-3-22,36,31,26,24,19,17,75,62,50,30.07,30.00,8,2,9,0.00
2013-3-23,38,32,29,30,25,20,92,76,54,30.14,30.05,15,4,15,0.00
2013-3-24,29,27,25,27,22,19,92,83,69,30.13,30.07,21,6,21,0.01
2013-3-25,31,27,24,24,22,18,91,82,65,30.39,30.12,19,5,20,0.00
2013-3-26,43,30,18,25,20,13,84,66,44,30.43,30.27,11,2,12,0.01
2013-3-27,53,36,26,30,24,21,83,66,41,30.31,30.19,11,3,16,0.00
2013-3-29,71,63,57,33,32,30,41,32,22,30.07,30.02,14,3,17,0.00
2013-3-30,69,57,48,53,43,33,93,63,31,30.06,29.87,14,3,18,0.28
2013-3-31,59,48,32,42,33,22,92,61,26,30.14,29.91,19,5,22,0.03